KHYS/HYS METAR and TAF weather

Enter ICAO airport designator
Station Type Date Time Source
KHYS METAR 2020/01/17 14:31 UTC NOAA

KHYS 171431Z AUTO 16013G22KT 5SM BR OVC004 M01/M02 A3006 RMK AO2 FZRANO


Station Type Date Time Source
KHYS Decoded METAR 2020/01/17 14:31 UTC NOAA

Hays, Hays Regional Airport, KS, United States (KHYS) 38-51N 099-16W
Jan 17, 2020 - 09:31 AM EST / 2020.01.17 1431 UTC
Wind: from the SSE (160 degrees) at 15 MPH (13 KT) gusting to 25 MPH (22 KT):0
Visibility: 5 mile(s):0
Sky conditions: overcast
Weather: mist
Temperature: 30 F (-1 C)
Windchill: 19 F (-7 C):1
Dew Point: 28 F (-2 C)
Relative Humidity: 92%
Pressure (altimeter): 30.06 in. Hg (1017 hPa)
ob: KHYS 171431Z AUTO 16013G22KT 5SM BR OVC004 M01/M02 A3006 RMK AO2 FZRANO
cycle: 14

Station Type Date Time Source
KHYS TAF 2020/01/17 14:51 UTC NOAA

TAF
AMD KHYS 171349Z 1714/1812 18015G25KT P6SM OVC006
FM172300 22015G25KT P6SM BKN010
FM180000 23013G20KT P6SM SCT007 WS020/23040KT
FM180500 31019KT P6SM SCT120 WS013/32035KT

Example: see airport list